createdAt,value
2023-02-03T00:04:25.137Z,6.90
2023-02-03T00:09:26.571Z,8.88
2023-02-03T00:14:28.002Z,9.80
2023-02-03T00:19:29.413Z,10.60
2023-02-03T00:24:30.830Z,10.45
2023-02-03T00:29:32.394Z,9.40
2023-02-03T00:34:33.779Z,9.40
2023-02-03T00:39:38.273Z,8.00
2023-02-03T00:44:39.672Z,7.25
2023-02-03T00:49:41.142Z,7.38
2023-02-03T00:54:42.674Z,7.30
2023-02-03T00:59:44.120Z,7.68
2023-02-03T01:04:45.584Z,8.90
2023-02-03T01:09:47.049Z,10.88
2023-02-03T01:14:48.461Z,10.63
2023-02-03T01:19:51.417Z,10.05
2023-02-03T01:24:52.872Z,8.90
2023-02-03T01:29:54.353Z,8.27
2023-02-03T01:34:55.819Z,9.60
2023-02-03T01:39:57.766Z,7.18
2023-02-03T01:44:59.265Z,8.48
2023-02-03T01:50:16.146Z,8.85
2023-02-03T01:55:21.053Z,7.55
2023-02-03T02:00:22.503Z,8.60
2023-02-03T02:05:32.241Z,8.07
2023-02-03T02:10:33.852Z,8.27
2023-02-03T02:15:50.454Z,7.78
2023-02-03T02:21:22.164Z,7.85
2023-02-03T02:26:41.912Z,8.27
2023-02-03T02:32:06.195Z,7.15
2023-02-03T02:37:12.782Z,6.55
2023-02-03T02:42:32.204Z,6.82
2023-02-03T02:47:33.799Z,8.43
2023-02-03T02:52:38.943Z,6.70
2023-02-03T02:57:42.534Z,6.90
2023-02-03T03:02:43.968Z,7.00
2023-02-03T03:07:51.540Z,6.80
2023-02-03T03:12:56.488Z,6.22
2023-02-03T03:18:27.969Z,6.75
2023-02-03T03:23:35.787Z,7.60
2023-02-03T03:28:49.304Z,9.60
2023-02-03T03:33:50.770Z,8.90
2023-02-03T03:39:04.347Z,8.70
2023-02-03T03:44:10.552Z,8.88
2023-02-03T03:49:13.700Z,9.20
2023-02-03T03:54:20.367Z,8.48
2023-02-03T03:59:24.197Z,7.70
2023-02-03T04:04:26.308Z,6.95
2023-02-03T04:09:28.742Z,7.82
2023-02-03T04:14:35.279Z,8.65
2023-02-03T04:19:36.738Z,7.70
2023-02-03T04:24:38.217Z,7.20
2023-02-03T04:29:39.632Z,6.72
2023-02-03T04:34:41.210Z,6.20
2023-02-03T04:39:42.690Z,5.15
2023-02-03T04:44:44.369Z,5.30
2023-02-03T04:49:45.818Z,4.80
2023-02-03T04:54:47.491Z,4.28
2023-02-03T04:59:48.981Z,5.05
2023-02-03T05:04:50.382Z,4.43
2023-02-03T05:09:51.775Z,4.45
2023-02-03T05:14:53.251Z,4.68
2023-02-03T05:19:54.665Z,4.50
2023-02-03T05:24:56.118Z,4.85
2023-02-03T05:29:57.574Z,4.90
2023-02-03T05:34:59.026Z,5.65
2023-02-03T05:40:20.406Z,6.13
2023-02-03T05:45:21.823Z,6.07
2023-02-03T05:50:23.405Z,5.97
2023-02-03T05:55:24.836Z,5.72
2023-02-03T06:00:26.520Z,4.95
2023-02-03T06:05:29.569Z,5.80
2023-02-03T06:10:30.992Z,8.82
2023-02-03T06:15:32.393Z,6.45
2023-02-03T06:20:33.832Z,9.52
2023-02-03T06:25:35.295Z,8.98
2023-02-03T06:30:37.091Z,6.53
2023-02-03T06:35:38.619Z,9.00
2023-02-03T06:40:40.069Z,5.13
2023-02-03T06:45:41.755Z,6.78
2023-02-03T06:50:43.272Z,7.25
2023-02-03T06:55:44.743Z,8.15
2023-02-03T07:00:46.144Z,7.22
2023-02-03T07:05:47.585Z,7.07
2023-02-03T07:10:53.753Z,5.43
2023-02-03T07:15:55.237Z,4.65
2023-02-03T07:20:56.664Z,4.65
2023-02-03T07:26:02.975Z,4.50
2023-02-03T07:31:04.872Z,4.00
2023-02-03T07:36:07.921Z,6.00
2023-02-03T07:41:09.359Z,5.97
2023-02-03T07:46:10.900Z,4.07
2023-02-03T07:51:12.380Z,4.43
2023-02-03T07:56:13.891Z,5.07
2023-02-03T08:01:16.858Z,4.88
2023-02-03T08:06:18.536Z,5.20
2023-02-03T08:11:19.947Z,4.78
2023-02-03T08:16:21.454Z,5.28
2023-02-03T08:21:22.910Z,5.00
2023-02-03T08:26:24.356Z,4.57
2023-02-03T08:31:25.877Z,4.80
2023-02-03T08:36:42.588Z,5.00
2023-02-03T08:41:44.017Z,8.45
2023-02-03T08:46:49.174Z,4.47
2023-02-03T08:51:51.018Z,5.13
2023-02-03T08:56:53.321Z,13.07
2023-02-03T09:01:55.084Z,13.35
2023-02-03T09:06:56.783Z,9.52
2023-02-03T09:12:02.291Z,5.30
2023-02-03T09:17:05.821Z,4.80
2023-02-03T09:22:07.591Z,5.15
2023-02-03T09:27:09.191Z,4.80
2023-02-03T09:32:10.812Z,9.27
2023-02-03T09:37:12.378Z,11.02
2023-02-03T09:42:51.149Z,9.20
2023-02-03T09:47:55.441Z,6.63
2023-02-03T09:52:58.889Z,8.75
2023-02-03T09:58:14.534Z,5.78
2023-02-03T10:03:41.607Z,5.80
2023-02-03T10:09:19.038Z,6.22
2023-02-03T10:14:40.080Z,8.90
2023-02-03T10:20:00.572Z,8.02
2023-02-03T10:25:20.843Z,8.27
2023-02-03T10:30:24.186Z,6.60
2023-02-03T10:35:36.426Z,7.28
2023-02-03T10:40:37.903Z,7.40
2023-02-03T10:45:39.966Z,7.70
2023-02-03T10:50:46.875Z,7.85
2023-02-03T10:55:52.304Z,7.38
2023-02-03T11:01:13.658Z,6.85
2023-02-03T11:06:17.488Z,6.90
2023-02-03T11:11:28.287Z,7.65
2023-02-03T11:16:32.215Z,6.20
2023-02-03T11:21:43.420Z,6.00
2023-02-03T11:26:47.721Z,5.63
2023-02-03T11:31:53.127Z,5.57
2023-02-03T11:36:55.173Z,5.50
2023-02-03T11:41:56.922Z,5.72
2023-02-03T11:47:03.759Z,7.97
2023-02-03T11:52:17.270Z,6.90
2023-02-03T11:57:34.719Z,4.95
2023-02-03T12:02:51.470Z,3.58
2023-02-03T12:08:09.821Z,2.90
2023-02-03T12:13:28.221Z,2.80
2023-02-03T12:19:07.387Z,3.45
2023-02-03T12:24:40.863Z,6.68
2023-02-03T12:29:49.904Z,2.80
2023-02-03T12:35:01.778Z,2.05
2023-02-03T12:40:14.280Z,1.35
2023-02-03T12:45:21.506Z,1.30
2023-02-03T12:50:35.278Z,1.27
2023-02-03T12:55:43.906Z,1.30
2023-02-03T13:00:51.817Z,1.80
2023-02-03T13:06:16.247Z,1.70
2023-02-03T13:11:24.740Z,1.40
2023-02-03T13:16:35.922Z,1.20
2023-02-03T13:21:37.561Z,1.50
2023-02-03T13:27:09.211Z,3.03
2023-02-03T13:32:25.827Z,6.20
2023-02-03T13:38:11.386Z,6.82
2023-02-03T13:43:36.925Z,5.75
2023-02-03T13:48:45.370Z,6.85
2023-02-03T13:53:48.670Z,5.28
2023-02-03T13:59:03.595Z,3.03
2023-02-03T14:04:26.692Z,4.63
2023-02-03T14:09:30.945Z,5.32
2023-02-03T14:14:35.480Z,3.33
2023-02-03T14:19:52.038Z,3.30
2023-02-03T14:24:56.559Z,3.50
2023-02-03T14:30:09.330Z,2.95
2023-02-03T14:35:20.333Z,5.20
2023-02-03T14:40:51.073Z,3.78
2023-02-03T14:46:14.079Z,4.13
2023-02-03T14:51:36.771Z,3.30
2023-02-03T14:57:04.899Z,4.50
2023-02-03T15:02:06.552Z,3.45
2023-02-03T15:07:08.053Z,3.65
2023-02-03T15:12:22.603Z,5.78
2023-02-03T15:17:26.902Z,3.80
2023-02-03T15:22:30.720Z,4.60
2023-02-03T15:27:33.247Z,3.90
2023-02-03T15:32:41.009Z,5.72
2023-02-03T15:37:44.332Z,6.65
2023-02-03T15:42:57.242Z,4.70
2023-02-03T15:48:07.766Z,3.50
2023-02-03T15:53:20.705Z,4.53
2023-02-03T15:58:28.838Z,5.40
2023-02-03T16:03:40.566Z,4.72
2023-02-03T16:08:49.379Z,4.47
2023-02-03T16:13:51.156Z,4.75
2023-02-03T16:18:56.280Z,2.83
2023-02-03T16:23:59.298Z,3.88
2023-02-03T16:29:22.197Z,3.67
2023-02-03T16:34:42.292Z,2.90
2023-02-03T16:40:02.317Z,2.10
2023-02-03T16:45:30.271Z,2.30
2023-02-03T16:50:53.114Z,2.60
2023-02-03T16:55:56.873Z,3.10
2023-02-03T17:01:00.809Z,2.47
2023-02-03T17:06:05.180Z,2.70
2023-02-03T17:11:15.639Z,2.92
2023-02-03T17:16:23.080Z,2.58
2023-02-03T17:21:27.972Z,3.22
2023-02-03T17:26:29.459Z,3.67
2023-02-03T17:31:31.608Z,4.03
2023-02-03T17:36:33.161Z,3.50
2023-02-03T17:57:34.357Z,3.25
2023-02-03T18:02:36.082Z,3.50
2023-02-03T18:07:37.535Z,3.45
2023-02-03T18:12:38.995Z,3.67
2023-02-03T18:17:40.675Z,3.15
2023-02-03T18:22:44.100Z,3.97
2023-02-03T18:27:45.749Z,4.22
2023-02-03T18:32:51.130Z,3.60
2023-02-03T18:37:53.264Z,3.92
2023-02-03T18:42:56.251Z,3.72
2023-02-03T18:47:57.673Z,4.40
2023-02-03T18:52:59.210Z,3.05
2023-02-03T18:58:00.640Z,3.40
2023-02-03T19:03:02.102Z,3.13
2023-02-03T19:08:03.587Z,3.20
2023-02-03T19:13:05.026Z,2.83
2023-02-03T19:18:06.467Z,2.67
2023-02-03T19:23:08.594Z,3.40
2023-02-03T19:28:17.427Z,3.30
2023-02-03T19:33:21.607Z,3.22
2023-02-03T19:38:23.067Z,3.30
2023-02-03T19:43:24.820Z,3.55
2023-02-03T19:48:26.496Z,3.53
2023-02-03T19:53:28.057Z,3.25
2023-02-03T19:58:30.671Z,3.50
2023-02-03T20:03:32.654Z,2.90
2023-02-03T20:08:34.155Z,3.13
2023-02-03T20:13:35.765Z,2.80
2023-02-03T20:18:37.226Z,3.38
2023-02-03T20:23:38.641Z,2.85
2023-02-03T20:28:40.191Z,2.75
2023-02-03T20:33:41.691Z,2.60
2023-02-03T20:38:43.099Z,2.88
2023-02-03T20:43:45.263Z,2.85
2023-02-03T20:48:47.062Z,2.47
2023-02-03T20:53:50.031Z,2.83
2023-02-03T20:58:51.672Z,2.65
2023-02-03T21:04:12.041Z,3.30
2023-02-03T21:09:16.227Z,2.55
2023-02-03T21:14:20.893Z,2.45
2023-02-03T21:19:33.529Z,3.10
2023-02-03T21:24:37.943Z,4.50
2023-02-03T21:29:40.486Z,4.60
2023-02-03T21:34:45.113Z,6.13
2023-02-03T21:39:47.736Z,6.10
2023-02-03T21:44:49.168Z,4.63
2023-02-03T21:49:50.621Z,4.47
2023-02-03T21:54:52.033Z,4.68
2023-02-03T21:59:53.457Z,3.25
2023-02-03T22:04:55.209Z,3.17
2023-02-03T22:09:56.614Z,2.78
2023-02-03T22:14:58.009Z,2.97
2023-02-03T22:19:59.460Z,4.00
2023-02-03T22:25:00.903Z,4.13
2023-02-03T22:30:02.334Z,3.10
2023-02-03T22:35:03.843Z,4.45
2023-02-03T22:40:05.829Z,3.47
2023-02-03T22:45:08.123Z,3.83
2023-02-03T22:50:11.950Z,2.47
2023-02-03T22:55:13.380Z,2.63
2023-02-03T23:00:20.406Z,2.72
2023-02-03T23:05:22.451Z,2.67
2023-02-03T23:10:26.142Z,2.70
2023-02-03T23:15:28.513Z,2.63
2023-02-03T23:20:30.373Z,3.15
2023-02-03T23:25:31.981Z,2.53
2023-02-03T23:30:34.141Z,2.60
2023-02-03T23:35:47.422Z,2.25
2023-02-03T23:40:48.998Z,1.88
2023-02-03T23:45:50.478Z,1.20
2023-02-03T23:50:51.890Z,2.03
2023-02-03T23:55:53.295Z,0.70
